createdAt,value
2018-07-31T00:00:25.448Z,25.70
2018-07-31T00:03:32.237Z,25.60
2018-07-31T00:06:38.971Z,25.60
2018-07-31T00:12:52.588Z,25.60
2018-07-31T00:15:59.360Z,25.60
2018-07-31T00:19:06.759Z,25.50
2018-07-31T00:22:13.504Z,25.50
2018-07-31T00:25:20.256Z,25.50
2018-07-31T00:34:40.218Z,25.40
2018-07-31T00:40:53.421Z,25.30
2018-07-31T00:47:06.843Z,25.30
2018-07-31T00:50:13.579Z,25.20
2018-07-31T00:53:20.283Z,25.20
2018-07-31T00:56:27.140Z,25.20
2018-07-31T01:02:40.649Z,25.10
2018-07-31T01:05:47.409Z,25.10
2018-07-31T01:08:53.852Z,25.00
2018-07-31T01:12:00.565Z,24.90
2018-07-31T01:15:07.373Z,24.90
2018-07-31T01:18:13.785Z,24.90
2018-07-31T01:21:20.477Z,24.80
2018-07-31T01:24:27.223Z,24.80
2018-07-31T01:33:47.462Z,24.80
2018-07-31T01:40:01.047Z,24.80
2018-07-31T01:43:08.165Z,24.80
2018-07-31T01:46:14.889Z,24.80
2018-07-31T01:49:21.623Z,24.80
2018-07-31T01:52:28.344Z,24.80
2018-07-31T01:55:35.331Z,24.80
2018-07-31T01:58:42.220Z,24.80
2018-07-31T02:01:48.952Z,24.80
2018-07-31T02:04:55.704Z,24.80
2018-07-31T02:08:02.419Z,24.70
2018-07-31T02:14:15.772Z,24.70
2018-07-31T02:23:35.224Z,24.60
2018-07-31T02:26:42.287Z,24.60
2018-07-31T02:36:07.665Z,24.50
2018-07-31T02:39:14.457Z,24.40
2018-07-31T02:42:21.206Z,24.40
2018-07-31T02:48:34.765Z,24.40
2018-07-31T02:57:55.226Z,24.30
2018-07-31T03:01:02.273Z,24.20
2018-07-31T03:04:09.081Z,24.20
2018-07-31T03:07:15.841Z,24.20
2018-07-31T03:10:22.631Z,24.20
2018-07-31T03:22:49.878Z,24.10
2018-07-31T03:25:56.613Z,24.00
2018-07-31T03:38:23.039Z,23.90
2018-07-31T03:44:36.724Z,23.90
2018-07-31T03:47:43.481Z,23.80
2018-07-31T03:53:57.057Z,23.80
2018-07-31T03:57:03.829Z,23.90
2018-07-31T04:00:10.895Z,23.90
2018-07-31T04:09:30.242Z,23.90
2018-07-31T04:12:37.028Z,23.90
2018-07-31T04:15:43.785Z,23.90
2018-07-31T04:21:57.355Z,24.00
2018-07-31T04:25:04.432Z,24.00
2018-07-31T04:37:30.510Z,24.10
2018-07-31T04:43:43.906Z,24.10
2018-07-31T04:46:51.056Z,24.10
2018-07-31T04:53:04.267Z,24.20
2018-07-31T04:59:17.949Z,24.20
2018-07-31T05:05:31.587Z,24.30
2018-07-31T05:08:38.660Z,24.40
2018-07-31T05:11:45.460Z,24.40
2018-07-31T05:14:52.229Z,24.50
2018-07-31T05:17:58.981Z,24.50
2018-07-31T05:27:18.669Z,24.70
2018-07-31T05:30:25.438Z,24.80
2018-07-31T05:33:32.188Z,24.80
2018-07-31T05:36:38.968Z,24.90
2018-07-31T05:39:45.707Z,25.00
2018-07-31T05:42:52.763Z,25.00
2018-07-31T05:45:59.915Z,25.00
2018-07-31T05:55:20.573Z,25.30
2018-07-31T05:58:27.361Z,25.70
2018-07-31T06:01:34.401Z,25.90
2018-07-31T06:04:41.392Z,26.30
2018-07-31T06:07:48.151Z,26.90
2018-07-31T06:10:54.948Z,27.70
2018-07-31T06:14:01.741Z,28.50
2018-07-31T06:17:08.564Z,29.20
2018-07-31T06:20:17.372Z,29.60
2018-07-31T06:23:24.559Z,30.10
2018-07-31T06:26:31.096Z,30.30
2018-07-31T06:32:44.717Z,30.20
2018-07-31T06:35:51.562Z,30.30
2018-07-31T06:38:58.697Z,30.10
2018-07-31T06:42:05.475Z,30.00
2018-07-31T06:45:12.316Z,29.90
2018-07-31T06:51:25.629Z,29.60
2018-07-31T06:57:39.233Z,30.50
2018-07-31T07:00:46.033Z,30.80
2018-07-31T07:03:53.155Z,31.00
2018-07-31T07:07:00.215Z,30.90
2018-07-31T07:10:07.148Z,30.80
2018-07-31T07:13:13.761Z,30.90
2018-07-31T07:16:20.543Z,31.30
2018-07-31T07:19:27.297Z,31.10
2018-07-31T07:22:33.767Z,30.80
2018-07-31T07:25:40.477Z,30.30
2018-07-31T07:28:47.336Z,30.10
2018-07-31T07:35:01.541Z,30.20
2018-07-31T07:44:22.494Z,30.30
2018-07-31T07:47:29.642Z,30.90
2018-07-31T07:50:36.853Z,31.50
2018-07-31T07:53:43.607Z,31.90
2018-07-31T07:56:50.752Z,31.80
2018-07-31T07:59:57.602Z,32.40
2018-07-31T08:03:04.644Z,32.80
2018-07-31T08:06:11.776Z,33.60
2018-07-31T08:09:18.917Z,34.20
2018-07-31T08:15:32.370Z,34.80
2018-07-31T08:18:39.466Z,34.50
2018-07-31T08:21:46.227Z,34.00
2018-07-31T08:24:53.954Z,33.70
2018-07-31T08:28:00.736Z,33.60
2018-07-31T08:31:07.242Z,33.40
2018-07-31T08:34:13.998Z,33.40
2018-07-31T08:37:20.472Z,33.10
2018-07-31T08:40:27.211Z,33.00
2018-07-31T08:43:34.296Z,33.10
2018-07-31T08:46:41.319Z,33.00
2018-07-31T08:49:48.426Z,32.90
2018-07-31T08:52:55.588Z,32.90
2018-07-31T08:56:02.149Z,33.00
2018-07-31T08:59:08.899Z,33.00
2018-07-31T09:02:15.743Z,33.00
2018-07-31T09:08:29.366Z,33.00
2018-07-31T09:14:42.441Z,33.60
2018-07-31T09:17:49.174Z,34.10
2018-07-31T09:24:02.857Z,34.50
2018-07-31T09:27:09.514Z,34.40
2018-07-31T09:33:23.050Z,34.20
2018-07-31T09:36:29.914Z,34.30
2018-07-31T09:39:36.887Z,34.30
2018-07-31T09:42:44.078Z,34.30
2018-07-31T09:45:51.148Z,34.20
2018-07-31T09:52:05.030Z,33.90
2018-07-31T09:55:11.767Z,33.80
2018-07-31T09:58:18.819Z,33.80
2018-07-31T10:01:25.946Z,33.70
2018-07-31T10:04:33.072Z,33.80
2018-07-31T10:07:40.167Z,33.80
2018-07-31T10:10:47.279Z,33.80
2018-07-31T10:13:54.028Z,33.80
2018-07-31T10:23:14.320Z,33.70
2018-07-31T10:26:21.507Z,33.70
2018-07-31T10:29:28.551Z,33.50
2018-07-31T10:35:42.077Z,33.60
2018-07-31T10:38:48.886Z,33.60
2018-07-31T10:48:08.575Z,33.80
2018-07-31T10:51:15.329Z,33.80
2018-07-31T10:54:22.191Z,33.70
2018-07-31T11:00:35.831Z,33.60
2018-07-31T11:03:42.597Z,33.70
2018-07-31T11:06:49.616Z,33.70
2018-07-31T11:09:56.751Z,33.80
2018-07-31T11:13:03.930Z,33.80
2018-07-31T11:16:11.014Z,33.80
2018-07-31T11:19:18.043Z,33.60
2018-07-31T11:22:25.236Z,33.60
2018-07-31T11:25:31.787Z,33.60
2018-07-31T11:28:38.559Z,33.60
2018-07-31T11:31:45.621Z,33.60
2018-07-31T11:37:58.785Z,33.60
2018-07-31T11:41:05.985Z,33.60
2018-07-31T11:47:19.243Z,33.60
2018-07-31T11:50:26.066Z,33.60
2018-07-31T11:53:32.751Z,33.70
2018-07-31T11:56:39.496Z,33.70
2018-07-31T11:59:46.279Z,33.80
2018-07-31T12:02:53.490Z,33.80
2018-07-31T12:09:09.828Z,33.80
2018-07-31T12:12:17.020Z,33.80
2018-07-31T12:15:24.027Z,33.80
2018-07-31T12:18:30.773Z,33.80
2018-07-31T12:21:37.995Z,33.80
2018-07-31T12:30:58.870Z,33.90
2018-07-31T12:34:05.629Z,33.90
2018-07-31T12:37:12.724Z,33.80
2018-07-31T12:46:33.096Z,33.70
2018-07-31T12:49:40.149Z,33.70
2018-07-31T12:52:47.260Z,33.80
2018-07-31T12:55:54.626Z,33.90
2018-07-31T13:02:08.686Z,33.80
2018-07-31T13:08:22.158Z,33.80
2018-07-31T13:11:28.968Z,34.00
2018-07-31T13:14:36.092Z,34.10
2018-07-31T13:17:43.197Z,34.40
2018-07-31T13:20:50.226Z,34.60
2018-07-31T13:23:57.459Z,34.70
2018-07-31T13:27:04.582Z,34.60
2018-07-31T13:30:11.744Z,34.50
2018-07-31T13:33:18.811Z,34.50
2018-07-31T13:42:39.232Z,34.30
2018-07-31T13:48:52.517Z,34.10
2018-07-31T13:55:06.638Z,34.30
2018-07-31T13:58:13.722Z,34.50
2018-07-31T14:01:20.834Z,34.40
2018-07-31T14:07:35.342Z,34.40
2018-07-31T14:10:42.371Z,34.30
2018-07-31T14:13:49.686Z,34.30
2018-07-31T14:16:56.960Z,34.30
2018-07-31T14:20:03.879Z,34.30
2018-07-31T14:29:23.864Z,34.50
2018-07-31T14:32:30.922Z,34.50
2018-07-31T14:35:57.567Z,34.50
2018-07-31T14:48:22.581Z,34.30
2018-07-31T14:51:29.335Z,34.30
2018-07-31T15:03:56.102Z,34.30
2018-07-31T15:07:03.270Z,34.30
2018-07-31T15:10:10.259Z,34.30
2018-07-31T15:13:16.743Z,34.20
2018-07-31T15:16:23.497Z,34.10
2018-07-31T15:19:29.996Z,34.10
2018-07-31T15:22:36.831Z,34.00
2018-07-31T15:25:43.954Z,34.00
2018-07-31T15:28:51.095Z,34.00
2018-07-31T15:31:58.260Z,34.00
2018-07-31T15:38:11.563Z,33.90
2018-07-31T15:41:18.383Z,33.90
2018-07-31T15:47:31.968Z,33.90
2018-07-31T15:53:45.173Z,34.00
2018-07-31T15:56:51.943Z,34.00
2018-07-31T15:59:59.048Z,33.90
2018-07-31T16:03:06.205Z,33.80
2018-07-31T16:06:12.745Z,33.80
2018-07-31T16:09:19.543Z,33.80
2018-07-31T16:21:47.130Z,33.70
2018-07-31T16:28:00.389Z,33.50
2018-07-31T16:34:13.616Z,33.40
2018-07-31T16:37:20.353Z,33.40
2018-07-31T16:40:26.876Z,33.30
2018-07-31T16:43:33.726Z,33.20
2018-07-31T16:46:40.517Z,33.10
2018-07-31T16:49:47.554Z,33.10
2018-07-31T16:56:01.110Z,32.60
2018-07-31T16:59:08.170Z,32.30
2018-07-31T17:02:14.933Z,32.00
2018-07-31T17:08:27.824Z,31.40
2018-07-31T17:14:41.948Z,30.70
2018-07-31T17:17:48.959Z,30.50
2018-07-31T17:20:55.490Z,30.30
2018-07-31T17:24:02.293Z,30.20
2018-07-31T17:27:09.025Z,30.00
2018-07-31T17:30:15.835Z,29.80
2018-07-31T17:33:22.927Z,29.60
2018-07-31T17:36:29.715Z,29.50
2018-07-31T17:39:37.031Z,29.30
2018-07-31T17:42:43.982Z,29.20
2018-07-31T17:45:50.720Z,29.20
2018-07-31T17:48:57.551Z,29.10
2018-07-31T17:52:04.152Z,29.10
2018-07-31T17:58:19.482Z,28.90
2018-07-31T18:01:26.225Z,28.80
2018-07-31T18:07:40.190Z,28.60
2018-07-31T18:10:47.047Z,28.50
2018-07-31T18:13:53.551Z,28.40
2018-07-31T18:17:00.278Z,28.40
2018-07-31T18:20:07.036Z,28.30
2018-07-31T18:23:13.847Z,28.20
2018-07-31T18:26:20.991Z,28.10
2018-07-31T18:29:27.716Z,28.10
2018-07-31T18:32:34.500Z,28.00
2018-07-31T18:35:41.651Z,27.90
2018-07-31T18:38:48.412Z,27.80
2018-07-31T18:45:01.894Z,27.50
2018-07-31T18:48:09.019Z,27.50
2018-07-31T18:51:16.092Z,27.40
2018-07-31T18:54:22.884Z,27.30
2018-07-31T18:57:29.651Z,27.30
2018-07-31T19:00:36.792Z,27.20
2018-07-31T19:03:46.492Z,27.10
2018-07-31T19:06:53.299Z,27.00
2018-07-31T19:10:00.020Z,26.90
2018-07-31T19:13:06.916Z,26.90
2018-07-31T19:19:20.851Z,26.80
2018-07-31T19:22:27.678Z,26.70
2018-07-31T19:25:34.413Z,26.70
2018-07-31T19:31:47.977Z,26.50
2018-07-31T19:34:55.138Z,26.50
2018-07-31T19:38:01.864Z,26.40
2018-07-31T19:41:08.625Z,26.40
2018-07-31T19:44:15.744Z,26.30
2018-07-31T19:47:22.475Z,26.30
2018-07-31T19:50:29.195Z,26.20
2018-07-31T19:56:42.835Z,26.00
2018-07-31T19:59:50.031Z,26.00
2018-07-31T20:02:56.834Z,25.90
2018-07-31T20:06:03.577Z,25.90
2018-07-31T20:09:13.265Z,25.80
2018-07-31T20:12:20.589Z,25.70
2018-07-31T20:15:27.378Z,25.70
2018-07-31T20:18:34.267Z,25.70
2018-07-31T20:21:41.013Z,25.60
2018-07-31T20:24:47.816Z,25.60
2018-07-31T20:31:01.442Z,25.50
2018-07-31T20:34:08.276Z,25.50
2018-07-31T20:40:21.729Z,25.40
2018-07-31T20:43:28.848Z,25.30
2018-07-31T20:46:35.522Z,25.30
2018-07-31T20:49:42.340Z,25.20
2018-07-31T20:52:49.111Z,25.10
2018-07-31T20:59:02.981Z,25.10
2018-07-31T21:02:09.760Z,25.00
2018-07-31T21:05:16.503Z,25.00
2018-07-31T21:08:23.340Z,24.90
2018-07-31T21:14:37.016Z,24.80
2018-07-31T21:17:43.705Z,24.80
2018-07-31T21:20:50.458Z,24.80
2018-07-31T21:27:03.664Z,24.80
2018-07-31T21:33:16.673Z,24.70
2018-07-31T21:36:23.476Z,24.70
2018-07-31T21:39:30.210Z,24.60
2018-07-31T21:48:50.343Z,24.60
2018-07-31T21:58:10.006Z,24.50
2018-07-31T22:01:16.852Z,24.50
2018-07-31T22:07:30.027Z,24.40
2018-07-31T22:10:36.779Z,24.40
2018-07-31T22:16:49.613Z,24.20
2018-07-31T22:23:03.141Z,24.10
2018-07-31T22:26:09.861Z,23.90
2018-07-31T22:32:23.189Z,23.80
2018-07-31T22:35:29.912Z,23.80
2018-07-31T22:41:43.444Z,23.80
2018-07-31T22:47:56.419Z,23.80
2018-07-31T22:51:02.817Z,23.70
2018-07-31T22:54:09.634Z,23.70
2018-07-31T22:57:16.376Z,23.70
2018-07-31T23:00:23.119Z,23.60
2018-07-31T23:06:36.392Z,23.60
2018-07-31T23:09:47.256Z,23.60
2018-07-31T23:12:54.079Z,23.60
2018-07-31T23:16:00.821Z,23.40
2018-07-31T23:19:07.540Z,23.40
2018-07-31T23:22:36.096Z,23.40
2018-07-31T23:25:42.842Z,23.30
2018-07-31T23:35:03.113Z,23.10
2018-07-31T23:38:09.850Z,23.00
2018-07-31T23:44:23.503Z,23.00
2018-07-31T23:50:37.754Z,23.00
2018-07-31T23:53:44.588Z,22.90
